Center, Missouri
Current Conditions -  °F | °C
As of 10:15 PM on Saturday 25 Oct 2014 (Local Time) from KHAE Reporting Station
Clear Clear  
Wind Chill: 63°   Ceiling: Unl
Heat Index: 63°   Visibility: 10mi
Dew Point: 39°   Wind: 5mph
Humidity: 42%   Direction: 20°NNE
Pressure: 30.05"   Gusts: NA
Location:  39.51°N, 91.53°W
Report Text: KHAE 260315Z AUTO 02004KT 10SM CLR 17/04 A3005 RMK AO2
Loading
Personal Weather Stations






























Interactive Weather Map
Tropical Storm Tracking
New forecast layout! Learn more

10-Day Weather Forecast

Advertisements
Track Severe Weather on mobile